Time;durP1;ratioP1;P1;durP2;ratioP2;P2;SDS_P1;SDS_P2;PMS_P1;PMS_P2;Temp;Humidity;BMP_temperature;BMP_pressure;BME280_temperature;BME280_humidity;BME280_pressure;Samples;Min_cycle;Max_cycle;Signal;HPM_P1;HPM_P2
2023/05/07 00:02:27;;;;;;;2.58;1.00;;;;;;;18.29;63.20;100125.38;10108152;29;20242;-74
2023/05/07 00:07:29;;;;;;;1.88;1.42;;;;;;;18.25;63.19;100118.66;10088709;29;20056;-77
2023/05/07 00:12:33;;;;;;;1.77;1.30;;;;;;;18.18;63.18;100117.69;10107614;29;20063;-76
2023/05/07 00:17:34;;;;;;;1.95;1.20;;;;;;;18.17;63.41;100118.69;10111294;29;20059;-77
2023/05/07 00:22:36;;;;;;;1.40;1.08;;;;;;;18.16;63.52;100114.31;10111053;29;20059;-75
2023/05/07 00:27:37;;;;;;;1.90;1.30;;;;;;;18.15;63.78;100124.28;10102685;29;20555;-76
2023/05/07 00:32:39;;;;;;;1.55;1.33;;;;;;;18.12;63.53;100111.16;10112671;29;20077;-75
2023/05/07 00:37:41;;;;;;;2.15;1.30;;;;;;;18.12;63.53;100113.00;10104227;29;20052;-78
2023/05/07 00:42:46;;;;;;;3.30;0.93;;;;;;;18.14;63.36;100117.19;10105900;29;20058;-78
2023/05/07 00:47:48;;;;;;;2.92;1.20;;;;;;;18.13;63.59;100120.06;10097077;29;20060;-78
2023/05/07 00:52:50;;;;;;;1.40;0.75;;;;;;;18.13;63.65;100107.44;10106852;29;21008;-75
2023/05/07 00:57:51;;;;;;;1.48;1.20;;;;;;;18.07;63.87;100100.06;10118699;29;20077;-79
2023/05/07 01:02:53;;;;;;;1.63;1.27;;;;;;;17.96;64.41;100087.81;10116569;29;20052;-78
2023/05/07 01:07:56;;;;;;;1.60;1.17;;;;;;;18.09;64.26;100113.34;10137412;29;20044;-73
2023/05/07 01:12:59;;;;;;;2.27;1.37;;;;;;;18.06;65.11;100102.91;10120399;29;20044;-76
2023/05/07 01:18:00;;;;;;;1.52;1.33;;;;;;;18.09;64.48;100110.66;10111810;29;20036;-76
2023/05/07 01:23:03;;;;;;;1.50;1.33;;;;;;;18.02;64.43;100097.06;10086870;29;20246;-77
2023/05/07 01:28:05;;;;;;;2.42;1.10;;;;;;;17.99;64.76;100097.41;10102769;29;20053;-77
2023/05/07 01:33:10;;;;;;;1.48;1.00;;;;;;;17.97;64.33;100088.66;10105059;29;20048;-75
2023/05/07 01:38:12;;;;;;;1.52;1.25;;;;;;;17.96;64.36;100093.22;10102400;29;20052;-74
2023/05/07 01:43:13;;;;;;;2.15;1.08;;;;;;;17.95;64.74;100106.84;10127598;29;20060;-77
2023/05/07 01:48:15;;;;;;;2.78;1.20;;;;;;;17.92;64.74;100102.66;10125298;29;20067;-76
2023/05/07 01:53:16;;;;;;;1.85;1.27;;;;;;;17.87;64.97;100086.16;10112221;29;20060;-75
2023/05/07 01:58:18;;;;;;;2.80;1.30;;;;;;;17.83;65.18;100083.00;10099408;29;20831;-77
2023/05/07 02:03:19;;;;;;;2.28;1.20;;;;;;;17.87;65.21;100099.63;10086988;29;20059;-75
2023/05/07 02:08:21;;;;;;;1.25;1.13;;;;;;;17.82;65.29;100085.84;10095282;29;20567;-77
2023/05/07 02:13:24;;;;;;;1.80;1.25;;;;;;;17.79;65.36;100091.56;10100325;29;20064;-74
2023/05/07 02:18:25;;;;;;;2.20;1.47;;;;;;;17.80;65.69;100104.00;10069378;29;20056;-74
2023/05/07 02:23:27;;;;;;;1.67;1.40;;;;;;;17.79;65.64;100105.88;10062620;29;20053;-76
2023/05/07 02:28:28;;;;;;;1.45;1.20;;;;;;;17.71;65.61;100094.31;10068698;29;20067;-78
2023/05/07 02:33:30;;;;;;;3.10;1.58;;;;;;;17.75;65.45;100101.03;10070074;29;20611;-76
2023/05/07 02:38:31;;;;;;;1.60;1.27;;;;;;;17.73;64.97;100109.28;10072682;29;20059;-74
2023/05/07 02:43:33;;;;;;;2.33;1.13;;;;;;;17.66;65.33;100092.97;10073376;29;20041;-78
2023/05/07 02:48:35;;;;;;;1.73;1.38;;;;;;;17.70;64.90;100101.53;10070096;29;20545;-75
2023/05/07 02:53:36;;;;;;;4.65;1.92;;;;;;;17.73;64.98;100105.72;10070062;29;20057;-78
2023/05/07 02:58:39;;;;;;;2.65;1.38;;;;;;;17.68;64.41;100103.56;10069713;29;20060;-76
2023/05/07 03:03:40;;;;;;;2.38;1.40;;;;;;;17.63;64.31;100098.69;10075803;29;20049;-74
2023/05/07 03:08:42;;;;;;;1.63;1.25;;;;;;;17.64;64.28;100107.63;10069802;29;20133;-77
2023/05/07 03:13:43;;;;;;;1.45;1.17;;;;;;;17.67;64.05;100104.59;10074269;29;20632;-76
2023/05/07 03:18:44;;;;;;;2.05;1.20;;;;;;;17.62;63.70;100090.78;10070221;29;20061;-76
2023/05/07 03:23:46;;;;;;;2.92;1.30;;;;;;;17.63;63.78;100093.31;10070865;29;20045;-77
2023/05/07 03:28:47;;;;;;;3.45;1.98;;;;;;;17.58;64.76;100087.63;10072808;29;20052;-76
2023/05/07 03:33:52;;;;;;;2.00;1.30;;;;;;;17.59;64.41;100102.72;10068567;29;20139;-76
2023/05/07 03:38:53;;;;;;;2.70;1.40;;;;;;;17.47;65.00;100088.84;10067451;29;20051;-77
2023/05/07 03:43:55;;;;;;;1.98;1.45;;;;;;;17.49;65.94;100096.75;10069891;29;20052;-73
2023/05/07 03:48:56;;;;;;;1.95;1.40;;;;;;;17.51;65.93;100086.63;10071169;29;20144;-74
2023/05/07 03:53:58;;;;;;;1.60;1.50;;;;;;;17.42;66.62;100090.34;10067183;29;20052;-74
2023/05/07 03:59:00;;;;;;;2.75;1.85;;;;;;;17.40;66.50;100079.78;10071855;29;20133;-78
2023/05/07 04:04:02;;;;;;;1.55;1.30;;;;;;;17.42;66.96;100090.34;10067765;29;20794;-79
2023/05/07 04:09:04;;;;;;;1.63;1.42;;;;;;;17.39;66.65;100085.31;10069305;29;22479;-74
2023/05/07 04:14:06;;;;;;;1.67;1.42;;;;;;;17.37;66.58;100090.00;10068018;29;24916;-75
2023/05/07 04:19:07;;;;;;;2.40;1.58;;;;;;;17.34;67.06;100101.97;10070775;29;20079;-73
2023/05/07 04:24:09;;;;;;;2.35;1.60;;;;;;;17.35;67.46;100110.88;10095292;29;20075;-76
2023/05/07 04:29:11;;;;;;;2.63;1.85;;;;;;;17.33;67.23;100112.91;10098857;29;21075;-74
2023/05/07 04:34:12;;;;;;;2.40;2.20;;;;;;;17.34;66.85;100122.66;10076657;29;20188;-77
2023/05/07 04:39:14;;;;;;;1.73;1.50;;;;;;;17.35;67.00;100132.41;10072207;29;20045;-73
2023/05/07 04:44:16;;;;;;;3.72;1.90;;;;;;;17.35;66.85;100137.78;10070637;29;20044;-76
2023/05/07 04:49:17;;;;;;;3.22;2.58;;;;;;;17.37;66.99;100146.50;10069492;29;20052;-76
2023/05/07 04:54:19;;;;;;;3.00;1.70;;;;;;;17.31;67.36;100145.38;10066293;29;20058;-77
2023/05/07 04:59:21;;;;;;;4.13;1.73;;;;;;;17.35;67.64;100153.94;10072260;29;20818;-77
2023/05/07 05:04:22;;;;;;;2.10;1.90;;;;;;;17.31;68.16;100146.19;10075858;29;20056;-76
2023/05/07 05:09:23;;;;;;;2.15;1.95;;;;;;;17.34;68.19;100147.72;10070053;29;20059;-79
2023/05/07 05:14:25;;;;;;;2.00;1.80;;;;;;;17.35;67.38;100153.94;10071252;29;20049;-75
2023/05/07 05:19:27;;;;;;;2.35;2.15;;;;;;;17.33;66.74;100162.16;10067962;29;20069;-75
2023/05/07 05:24:28;;;;;;;2.53;1.80;;;;;;;17.28;65.95;100151.91;10057793;29;20059;-73
2023/05/07 05:29:31;;;;;;;2.00;1.67;;;;;;;17.33;65.75;100158.66;10056370;29;20511;-75
2023/05/07 05:34:33;;;;;;;1.93;1.77;;;;;;;17.45;64.98;100176.13;10065449;29;20204;-75
2023/05/07 05:39:34;;;;;;;2.05;1.85;;;;;;;17.43;65.83;100173.59;10069897;29;20060;-74
2023/05/07 05:44:35;;;;;;;3.15;2.10;;;;;;;17.49;66.13;100172.91;10072278;29;20326;-74
2023/05/07 05:49:37;;;;;;;2.35;1.92;;;;;;;17.52;67.18;100177.13;10080235;29;20060;-75
2023/05/07 06:00:35;;;;;;;2.50;1.98;;;;;;;17.59;67.47;100172.72;10702564;23;20438;-60
2023/05/07 06:05:37;;;;;;;2.20;2.00;;;;;;;17.64;67.89;100174.91;10095844;29;20060;-60
2023/05/07 06:10:39;;;;;;;2.25;2.08;;;;;;;17.69;67.74;100177.09;10108002;29;20060;-61
2023/05/07 06:15:41;;;;;;;2.80;2.38;;;;;;;17.79;66.91;100177.72;10087236;29;20906;-60
2023/05/07 06:20:43;;;;;;;2.42;2.22;;;;;;;17.81;67.19;100181.91;10110169;29;20139;-61
2023/05/07 06:25:51;;;;;;;2.40;1.85;;;;;;;17.90;66.39;100180.06;10102960;29;20087;-60
2023/05/07 06:30:52;;;;;;;2.53;1.80;;;;;;;17.95;66.55;100183.06;10108588;29;20062;-61
2023/05/07 06:35:54;;;;;;;1.92;1.58;;;;;;;18.07;65.57;100180.84;10102077;29;20139;-60
2023/05/07 06:40:57;;;;;;;4.03;2.40;;;;;;;18.14;64.15;100189.09;10105765;29;20114;-61
2023/05/07 06:45:58;;;;;;;2.75;1.73;;;;;;;18.24;63.78;100196.94;10122763;29;20096;-61
2023/05/07 06:50:59;;;;;;;3.10;2.20;;;;;;;18.21;63.40;100200.84;10114817;29;20058;-65
2023/05/07 06:56:01;;;;;;;2.10;1.90;;;;;;;18.29;63.06;100192.72;10109572;29;20056;-61
2023/05/07 07:01:03;;;;;;;2.22;2.03;;;;;;;18.36;62.85;100196.41;10108621;29;21062;-60
2023/05/07 07:06:04;;;;;;;2.28;2.08;;;;;;;18.48;62.84;100206.78;10107312;29;20708;-60
2023/05/07 07:11:06;;;;;;;2.33;2.13;;;;;;;18.64;62.33;100198.59;10106204;29;20059;-60
2023/05/07 07:16:07;;;;;;;2.70;1.95;;;;;;;18.81;61.62;100193.09;10104108;29;20058;-61
2023/05/07 07:21:09;;;;;;;3.15;2.67;;;;;;;18.94;60.97;100203.34;10106182;29;20060;-60
2023/05/07 07:26:11;;;;;;;4.22;2.40;;;;;;;19.03;59.70;100192.28;10102729;29;20056;-61
2023/05/07 07:31:13;;;;;;;6.03;5.22;;;;;;;19.13;59.57;100200.16;10103716;28;20645;-60
2023/05/07 07:36:15;;;;;;;3.05;2.78;;;;;;;19.19;58.62;100207.53;10093592;28;20056;-58
2023/05/07 07:41:16;;;;;;;3.33;3.03;;;;;;;19.31;58.48;100210.63;10104480;28;20808;-59
2023/05/07 07:46:18;;;;;;;2.78;2.38;;;;;;;19.51;58.19;100204.72;10106770;29;20050;-59
2023/05/07 07:51:19;;;;;;;2.53;2.30;;;;;;;19.68;56.66;100197.28;10102957;29;20130;-59
2023/05/07 07:56:22;;;;;;;2.72;2.50;;;;;;;19.69;54.79;100215.19;10104807;29;20139;-61
2023/05/07 08:01:23;;;;;;;3.20;2.40;;;;;;;19.70;55.73;100212.28;10099197;28;20056;-59
2023/05/07 08:06:28;;;;;;;2.53;2.20;;;;;;;19.75;55.36;100223.38;10105341;29;20056;-59
2023/05/07 08:11:29;;;;;;;2.10;1.90;;;;;;;19.82;54.32;100214.59;10114124;29;20048;-59
2023/05/07 08:16:31;;;;;;;3.90;2.60;;;;;;;19.92;54.25;100209.72;10119264;29;20055;-61
2023/05/07 08:21:32;;;;;;;2.28;2.08;;;;;;;19.97;53.92;100210.03;10104400;29;20585;-60
2023/05/07 08:26:36;;;;;;;2.47;2.28;;;;;;;19.97;54.21;100212.72;10103924;29;20377;-59
2023/05/07 08:31:39;;;;;;;2.95;2.72;;;;;;;20.03;53.99;100211.97;10103909;29;20074;-59
2023/05/07 08:36:41;;;;;;;3.08;2.70;;;;;;;20.07;54.13;100204.31;10101204;29;20095;-60
2023/05/07 08:41:45;;;;;;;2.40;2.20;;;;;;;19.98;54.45;100211.69;10105456;28;20226;-59
2023/05/07 08:46:51;;;;;;;2.70;2.45;;;;;;;20.07;54.75;100207.88;10099229;28;20255;-59
2023/05/07 08:51:53;;;;;;;2.80;2.60;;;;;;;20.16;54.11;100196.97;10095207;29;20048;-60
2023/05/07 08:56:55;;;;;;;3.05;2.80;;;;;;;20.33;53.67;100203.84;10098565;29;20187;-59
2023/05/07 09:01:56;;;;;;;2.78;2.50;;;;;;;20.39;53.81;100197.69;10100313;29;20192;-60
2023/05/07 09:07:03;;;;;;;3.28;2.75;;;;;;;20.53;53.92;100209.50;10104120;28;20108;-59
2023/05/07 09:12:05;;;;;;;4.18;3.20;;;;;;;20.63;53.52;100204.63;10099885;29;20524;-59
2023/05/07 09:17:06;;;;;;;3.35;3.05;;;;;;;20.79;52.40;100209.00;10100570;29;20818;-60
2023/05/07 09:22:08;;;;;;;3.05;2.85;;;;;;;20.92;53.05;100212.88;10099736;28;20055;-60
2023/05/07 09:27:13;;;;;;;3.75;3.30;;;;;;;21.17;53.21;100216.03;10102682;29;20510;-55
2023/05/07 09:32:14;;;;;;;3.30;3.00;;;;;;;21.39;51.22;100207.88;10098623;29;20052;-59
2023/05/07 09:37:16;;;;;;;3.72;3.08;;;;;;;21.47;51.56;100205.88;10095572;29;20509;-59
2023/05/07 09:42:24;;;;;;;3.60;2.58;;;;;;;21.61;50.98;100206.00;10096254;28;20196;-59
2023/05/07 09:47:32;;;;;;;3.15;2.95;;;;;;;21.79;50.74;100197.38;10096622;28;20054;-61
2023/05/07 09:52:35;;;;;;;3.28;2.97;;;;;;;22.00;49.93;100188.34;10110490;29;20052;-61
2023/05/07 09:57:38;;;;;;;3.22;2.92;;;;;;;22.29;49.99;100189.91;10095020;29;20138;-60
2023/05/07 10:02:46;;;;;;;4.80;3.65;;;;;;;22.70;48.98;100194.50;10091449;28;20063;-60
2023/05/07 10:07:48;;;;;;;3.95;3.33;;;;;;;23.06;46.92;100193.31;10093229;29;20458;-61
2023/05/07 10:12:51;;;;;;;2.87;2.67;;;;;;;23.27;48.17;100189.59;10095842;29;20423;-62
2023/05/07 10:17:53;;;;;;;2.83;2.63;;;;;;;23.56;47.01;100187.47;10100954;28;20066;-62
2023/05/07 10:22:57;;;;;;;3.17;2.87;;;;;;;23.86;45.13;100186.22;10095113;29;20060;-61
2023/05/07 10:28:04;;;;;;;2.72;2.53;;;;;;;23.92;45.94;100188.09;10093427;29;20401;-61
2023/05/07 10:33:10;;;;;;;3.17;2.95;;;;;;;24.14;44.96;100185.91;10098858;29;20052;-60
2023/05/07 10:38:12;;;;;;;3.70;2.38;;;;;;;24.12;44.33;100175.25;10095313;29;20297;-61
2023/05/07 10:43:14;;;;;;;3.25;2.95;;;;;;;24.30;44.56;100173.72;10096756;29;20751;-59
2023/05/07 10:48:16;;;;;;;3.33;2.90;;;;;;;24.50;44.40;100176.34;10092798;29;20075;-58
2023/05/07 10:53:24;;;;;;;4.65;2.78;;;;;;;24.39;44.55;100168.88;10104594;29;20337;-60
2023/05/07 10:58:27;;;;;;;3.92;2.47;;;;;;;24.32;44.88;100169.75;10094233;28;20591;-58
2023/05/07 11:03:31;;;;;;;2.70;2.22;;;;;;;24.57;44.47;100165.44;10097426;29;20204;-59
2023/05/07 11:08:53;;;;;;;2.78;2.35;;;;;;;24.68;42.67;100160.16;10100919;29;20056;-59
2023/05/07 11:13:54;;;;;;;2.67;2.42;;;;;;;24.65;42.87;100163.34;10102590;29;21652;-59
2023/05/07 11:18:56;;;;;;;2.63;2.30;;;;;;;24.81;43.04;100161.13;10098558;28;20107;-60
2023/05/07 11:23:59;;;;;;;3.38;2.25;;;;;;;24.94;43.40;100161.03;10099440;28;20071;-60
2023/05/07 11:29:00;;;;;;;2.80;2.50;;;;;;;25.23;42.83;100158.72;10100387;28;20113;-59
2023/05/07 11:34:02;;;;;;;4.38;2.25;;;;;;;25.45;42.84;100159.19;10094991;29;20620;-59
2023/05/07 11:39:04;;;;;;;1.83;1.63;;;;;;;25.67;40.23;100147.84;10099441;29;20055;-59
2023/05/07 11:44:06;;;;;;;2.38;1.40;;;;;;;25.88;39.35;100157.47;10096291;29;20059;-60
2023/05/07 11:49:08;;;;;;;2.20;1.50;;;;;;;25.91;36.88;100143.41;10091233;28;20052;-58
2023/05/07 11:54:11;;;;;;;2.30;1.42;;;;;;;25.94;36.15;100146.50;10092247;29;20143;-58
2023/05/07 11:59:17;;;;;;;2.28;1.58;;;;;;;25.92;35.42;100131.44;10099649;29;20143;-59
2023/05/07 12:04:20;;;;;;;2.72;1.58;;;;;;;25.93;37.75;100136.66;10090167;29;20040;-57
2023/05/07 12:09:22;;;;;;;1.38;1.00;;;;;;;25.99;36.70;100131.41;10095520;29;20048;-59
2023/05/07 12:14:27;;;;;;;2.38;1.17;;;;;;;25.94;35.12;100126.56;10094933;29;20060;-59
2023/05/07 12:19:30;;;;;;;2.63;0.82;;;;;;;25.99;36.74;100134.13;10092986;29;20734;-58
2023/05/07 12:24:46;;;;;;;1.13;0.75;;;;;;;25.91;34.42;100116.13;10097768;28;20060;-59
2023/05/07 12:29:49;;;;;;;2.15;1.30;;;;;;;25.93;37.20;100114.03;10095556;28;20051;-57
2023/05/07 12:34:51;;;;;;;1.05;0.95;;;;;;;25.95;36.85;100117.34;10096223;29;21617;-59
2023/05/07 12:40:06;;;;;;;2.85;1.50;;;;;;;25.79;36.32;100118.78;10091855;29;20180;-58
2023/05/07 12:45:12;;;;;;;1.85;1.15;;;;;;;25.68;36.68;100114.91;10098112;29;20055;-58
2023/05/07 12:50:16;;;;;;;2.78;1.50;;;;;;;25.69;37.81;100111.16;10097816;28;20211;-58
2023/05/07 12:55:17;;;;;;;1.73;1.60;;;;;;;25.81;37.71;100107.69;10097041;29;20082;-58
2023/05/07 13:00:36;;;;;;;2.83;1.55;;;;;;;25.80;36.42;100101.38;10096510;29;20062;-60
2023/05/07 13:05:38;;;;;;;2.50;1.60;;;;;;;25.82;37.09;100095.69;10095904;28;20110;-59
2023/05/07 13:10:40;;;;;;;1.37;1.13;;;;;;;25.83;36.33;100100.91;10098244;29;20044;-62
2023/05/07 13:15:41;;;;;;;2.03;1.45;;;;;;;25.91;37.64;100099.78;10095515;28;20068;-62
2023/05/07 13:20:43;;;;;;;2.00;1.80;;;;;;;25.92;39.10;100093.25;10097450;29;20056;-59
2023/05/07 13:25:44;;;;;;;1.73;1.60;;;;;;;25.84;39.37;100093.59;10100526;29;20067;-58
2023/05/07 13:30:46;;;;;;;2.17;1.98;;;;;;;25.74;39.25;100094.94;10099478;29;20131;-58
2023/05/07 13:35:48;;;;;;;1.70;1.60;;;;;;;25.62;39.43;100091.31;10093857;29;20158;-56
2023/05/07 13:40:50;;;;;;;1.90;1.70;;;;;;;25.67;38.68;100080.56;10095829;29;20060;-57
2023/05/07 13:45:52;;;;;;;2.78;1.33;;;;;;;25.72;38.37;100079.88;10095629;28;20291;-58
2023/05/07 13:50:54;;;;;;;1.75;1.65;;;;;;;25.82;38.56;100076.59;10098313;29;20067;-58
2023/05/07 13:55:55;;;;;;;3.27;1.60;;;;;;;25.77;37.61;100082.75;10095321;29;20044;-59
2023/05/07 14:00:57;;;;;;;2.10;1.70;;;;;;;25.55;37.56;100071.47;10096105;29;20114;-57
2023/05/07 14:05:59;;;;;;;3.30;1.60;;;;;;;25.54;37.76;100061.66;10096593;29;20055;-58
2023/05/07 14:11:01;;;;;;;2.03;1.42;;;;;;;25.40;37.85;100066.38;10120266;29;20914;-58
2023/05/07 14:16:04;;;;;;;1.50;1.40;;;;;;;25.28;37.98;100060.00;10120964;29;20063;-58
2023/05/07 14:21:09;;;;;;;1.80;1.70;;;;;;;25.13;38.94;100072.09;10117796;29;20052;-59
2023/05/07 14:26:11;;;;;;;1.88;1.60;;;;;;;25.03;39.67;100075.31;10126183;29;20051;-57
2023/05/07 14:31:13;;;;;;;1.95;1.33;;;;;;;24.96;40.06;100062.81;10122833;28;20075;-60
2023/05/07 14:36:15;;;;;;;2.13;1.53;;;;;;;24.86;39.96;100061.44;10133068;29;20145;-58
2023/05/07 14:41:16;;;;;;;2.40;1.35;;;;;;;24.80;39.41;100061.47;10130909;29;20590;-59
2023/05/07 14:46:19;;;;;;;3.28;1.95;;;;;;;24.74;40.05;100060.50;10127993;29;20056;-58
2023/05/07 14:51:21;;;;;;;1.75;1.65;;;;;;;24.73;40.34;100061.53;10126321;29;20055;-58
2023/05/07 14:56:22;;;;;;;4.40;1.70;;;;;;;24.62;40.28;100068.53;10128106;29;20079;-59
2023/05/07 15:01:25;;;;;;;2.05;1.52;;;;;;;24.55;40.54;100075.06;10144281;28;20056;-58
2023/05/07 15:06:27;;;;;;;1.83;1.30;;;;;;;24.45;40.22;100081.78;10127451;29;20056;-58
2023/05/07 15:11:28;;;;;;;2.90;1.30;;;;;;;24.38;40.75;100085.59;10125231;28;20087;-58
2023/05/07 15:16:30;;;;;;;2.38;1.40;;;;;;;24.33;40.47;100094.41;10128718;29;20056;-62
2023/05/07 15:21:34;;;;;;;1.58;1.42;;;;;;;24.25;40.81;100084.63;10127120;29;20150;-58
2023/05/07 15:26:35;;;;;;;1.35;1.25;;;;;;;24.26;41.11;100099.06;10122553;29;20828;-58
2023/05/07 15:31:38;;;;;;;2.55;1.45;;;;;;;24.15;40.25;100103.31;10126044;29;20062;-58
2023/05/07 15:36:40;;;;;;;1.92;1.73;;;;;;;24.13;40.09;100108.13;10124869;29;20857;-57
2023/05/07 15:41:42;;;;;;;1.63;1.30;;;;;;;24.00;39.39;100112.59;10128397;29;20053;-58
2023/05/07 15:46:43;;;;;;;3.33;1.20;;;;;;;23.95;40.07;100108.84;10128355;28;20751;-58
2023/05/07 15:51:45;;;;;;;1.63;1.52;;;;;;;23.87;40.29;100118.06;10126223;29;20220;-58
2023/05/07 15:56:47;;;;;;;1.80;1.27;;;;;;;23.78;40.51;100111.13;10165499;28;20138;-60
2023/05/07 16:01:49;;;;;;;2.42;1.73;;;;;;;23.75;40.68;100106.13;10166172;28;20091;-58
2023/05/07 16:06:51;;;;;;;2.00;1.90;;;;;;;23.71;40.73;100110.34;10152430;28;20104;-58
2023/05/07 16:11:52;;;;;;;1.75;1.65;;;;;;;23.68;41.83;100108.06;10155338;28;20074;-72
2023/05/07 16:16:54;;;;;;;2.75;1.73;;;;;;;23.65;42.52;100106.59;10162418;28;20055;-57
2023/05/07 16:21:57;;;;;;;;;;;;;;;23.62;41.81;100109.75;10165620;28;20050;-58
2023/05/07 16:26:59;;;;;;;2.50;2.20;;;;;;;23.53;42.07;100103.69;10163131;28;19934;-58
2023/05/07 16:32:01;;;;;;;2.58;1.80;;;;;;;23.48;41.86;100108.94;10162464;28;20051;-58
2023/05/07 16:37:03;;;;;;;1.83;1.70;;;;;;;23.37;41.92;100101.44;10162962;28;20047;-64
2023/05/07 16:42:05;;;;;;;2.00;1.73;;;;;;;23.39;42.07;100104.75;10164494;28;20206;-58
2023/05/07 16:47:06;;;;;;;1.88;1.60;;;;;;;23.34;42.08;100107.28;10160911;28;20051;-58
2023/05/07 16:52:08;;;;;;;2.33;2.05;;;;;;;23.27;42.03;100121.72;10162148;28;20056;-58
2023/05/07 16:57:09;;;;;;;2.95;2.63;;;;;;;23.24;42.17;100124.84;10163552;28;20156;-61
2023/05/07 17:02:10;;;;;;;2.17;1.98;;;;;;;23.19;42.56;100129.22;10157067;28;20056;-58
2023/05/07 17:07:13;;;;;;;3.20;2.70;;;;;;;23.07;43.25;100137.13;10158701;28;20074;-58
2023/05/07 17:12:15;;;;;;;2.50;2.30;;;;;;;23.02;42.88;100145.91;10158826;28;20062;-58
2023/05/07 17:17:17;;;;;;;2.53;1.92;;;;;;;22.65;48.22;100182.56;10159295;28;20060;-57
2023/05/07 17:22:18;;;;;;;4.40;1.95;;;;;;;22.18;51.75;100185.91;10161759;28;20073;-57
2023/05/07 17:27:20;;;;;;;2.55;1.67;;;;;;;21.56;55.87;100213.88;10163759;28;20190;-57
2023/05/07 17:32:22;;;;;;;2.08;1.88;;;;;;;21.19;58.02;100224.78;10163938;28;20138;-57
2023/05/07 17:37:23;;;;;;;2.55;1.65;;;;;;;20.78;59.63;100242.47;10160459;28;20368;-58
2023/05/07 17:42:25;;;;;;;3.05;2.63;;;;;;;20.82;59.49;100254.59;10160755;28;20052;-58
2023/05/07 17:47:26;;;;;;;2.55;1.80;;;;;;;20.57;63.04;100266.75;10163090;28;20060;-60
2023/05/07 17:52:28;;;;;;;2.78;1.45;;;;;;;20.25;64.53;100268.81;10144867;28;20100;-59
2023/05/07 17:57:30;;;;;;;3.20;1.40;;;;;;;20.18;64.35;100284.09;10165262;23;20142;-75
2023/05/07 18:02:32;;;;;;;1.88;0.93;;;;;;;20.19;63.12;100308.25;10199181;28;20048;-71
2023/05/07 18:07:34;;;;;;;3.83;1.38;;;;;;;20.18;63.83;100303.03;10207300;28;20061;-73
2023/05/07 18:12:36;;;;;;;3.93;1.37;;;;;;;20.14;65.01;100306.06;10196534;23;20157;-59
2023/05/07 18:17:37;;;;;;;2.85;1.67;;;;;;;20.15;65.08;100315.03;10188807;28;20530;-59
2023/05/07 18:22:39;;;;;;;3.55;1.80;;;;;;;20.12;64.83;100329.75;10160482;28;20099;-59
2023/05/07 18:27:40;;;;;;;2.15;0.90;;;;;;;19.98;64.67;100329.72;10167810;28;20809;-59
2023/05/07 18:32:42;;;;;;;2.55;0.90;;;;;;;19.91;64.46;100324.22;10167317;28;20055;-58
2023/05/07 18:37:43;;;;;;;1.65;1.00;;;;;;;19.75;65.56;100327.88;10168939;28;20058;-60
2023/05/07 18:42:45;;;;;;;1.63;1.52;;;;;;;19.75;65.36;100331.41;10147339;28;20051;-59
2023/05/07 18:47:47;;;;;;;1.60;1.02;;;;;;;19.56;68.09;100330.03;10164410;28;20432;-59
2023/05/07 18:52:48;;;;;;;2.25;1.67;;;;;;;19.58;67.88;100340.66;10164948;28;20059;-59
2023/05/07 18:57:51;;;;;;;1.70;1.20;;;;;;;19.55;68.96;100327.53;10164567;28;20043;-60
2023/05/07 19:02:52;;;;;;;2.40;1.70;;;;;;;19.46;71.30;100329.44;10164750;28;20059;-60
2023/05/07 19:07:53;;;;;;;1.95;1.70;;;;;;;19.30;71.59;100343.88;10226890;23;20126;-75
2023/05/07 19:12:56;;;;;;;2.00;1.50;;;;;;;19.34;71.06;100356.00;10186552;28;20062;-71
2023/05/07 19:17:57;;;;;;;2.58;1.40;;;;;;;19.05;72.00;100352.13;10178870;28;20559;-71
2023/05/07 19:22:59;;;;;;;2.83;1.35;;;;;;;19.30;71.19;100364.63;10150589;28;20391;-73
2023/05/07 19:28:00;;;;;;;1.88;1.30;;;;;;;19.41;70.69;100373.16;10148628;28;20195;-75
2023/05/07 19:33:02;;;;;;;2.47;1.38;;;;;;;19.47;69.97;100368.94;10156270;28;20158;-74
2023/05/07 19:38:04;;;;;;;2.40;1.63;;;;;;;19.49;70.06;100380.38;10174598;28;20268;-73
2023/05/07 19:43:06;;;;;;;2.25;1.88;;;;;;;19.42;70.21;100388.31;10152296;28;20151;-73
2023/05/07 19:48:07;;;;;;;2.65;1.70;;;;;;;19.29;70.88;100396.19;10154849;28;20257;-73
2023/05/07 19:53:08;;;;;;;2.00;1.73;;;;;;;19.35;69.61;100398.19;10146810;28;20059;-74
2023/05/07 19:58:10;;;;;;;3.65;2.08;;;;;;;19.03;71.52;100405.41;10157321;28;20051;-73
2023/05/07 20:03:17;;;;;;;3.05;2.05;;;;;;;19.11;72.48;100409.94;10155361;28;20139;-76
2023/05/07 20:08:19;;;;;;;2.40;2.20;;;;;;;19.25;70.96;100411.03;10149115;29;20067;-74
2023/05/07 20:13:20;;;;;;;2.60;1.88;;;;;;;19.30;71.67;100418.59;10151855;28;20065;-77
2023/05/07 20:18:23;;;;;;;2.13;1.92;;;;;;;19.35;69.83;100427.88;10150082;28;20106;-73
2023/05/07 20:23:24;;;;;;;2.25;1.95;;;;;;;19.28;72.44;100440.38;10149130;28;20409;-75
2023/05/07 20:28:25;;;;;;;2.60;2.40;;;;;;;19.35;73.28;100441.34;10152305;28;20518;-74
2023/05/07 20:33:28;;;;;;;3.10;2.47;;;;;;;19.34;73.53;100438.84;10147780;28;20427;-76
2023/05/07 20:38:32;;;;;;;3.72;2.28;;;;;;;19.32;73.87;100454.34;10150480;29;21502;-74
2023/05/07 20:43:36;;;;;;;2.63;2.42;;;;;;;19.22;74.66;100454.56;10151205;28;20044;-73
2023/05/07 20:48:38;;;;;;;3.70;2.58;;;;;;;19.15;74.98;100458.97;10150156;28;20083;-72
2023/05/07 20:53:39;;;;;;;3.00;2.60;;;;;;;19.11;75.86;100463.03;10149853;28;20056;-74
2023/05/07 20:58:41;;;;;;;3.22;2.92;;;;;;;19.13;76.14;100469.94;10145055;28;20055;-74
2023/05/07 21:03:42;;;;;;;2.80;2.50;;;;;;;19.05;76.54;100468.13;10162467;28;20548;-74
2023/05/07 21:08:43;;;;;;;3.00;2.78;;;;;;;19.07;77.59;100476.03;10150811;28;20142;-75
2023/05/07 21:13:45;;;;;;;3.08;2.78;;;;;;;19.04;77.22;100482.63;10146546;28;20059;-77
2023/05/07 21:18:46;;;;;;;3.88;3.38;;;;;;;19.04;78.45;100481.78;10142194;28;20082;-71
2023/05/07 21:23:48;;;;;;;5.63;3.17;;;;;;;19.04;78.66;100490.72;10146647;28;20064;-71
2023/05/07 21:28:49;;;;;;;3.30;3.00;;;;;;;19.00;80.08;100483.97;10142836;28;20478;-71
2023/05/07 21:33:52;;;;;;;3.53;3.10;;;;;;;18.96;80.05;100487.19;10145321;28;20388;-72
2023/05/07 21:38:54;;;;;;;3.38;3.05;;;;;;;18.95;79.55;100496.31;10143343;28;20052;-69
2023/05/07 21:43:55;;;;;;;3.97;3.67;;;;;;;18.83;76.21;100482.31;10139653;29;20047;-73
2023/05/07 21:48:56;;;;;;;4.07;3.78;;;;;;;18.88;75.05;100490.75;10169041;28;20357;-72
2023/05/07 21:53:58;;;;;;;5.30;4.78;;;;;;;18.83;71.98;100488.53;10160486;29;20052;-77
2023/05/07 21:58:59;;;;;;;5.82;5.38;;;;;;;18.72;69.62;100481.66;10163833;28;20055;-73
2023/05/07 22:04:01;;;;;;;6.80;6.22;;;;;;;18.67;68.23;100483.19;10156785;28;20599;-74
2023/05/07 22:09:03;;;;;;;6.13;5.63;;;;;;;18.65;67.13;100491.44;10177868;28;20067;-73
2023/05/07 22:14:04;;;;;;;6.50;5.90;;;;;;;18.62;65.78;100496.34;10160873;28;20435;-72
2023/05/07 22:19:05;;;;;;;6.13;5.63;;;;;;;18.42;65.35;100493.13;10160022;28;20060;-74
2023/05/07 22:24:07;;;;;;;6.45;5.85;;;;;;;18.36;65.39;100498.22;10157945;28;20060;-73
2023/05/07 22:29:08;;;;;;;6.40;5.80;;;;;;;18.39;65.43;100518.59;10169646;28;20273;-73
2023/05/07 22:34:09;;;;;;;6.53;5.82;;;;;;;18.26;64.36;100516.38;10166447;28;20526;-73
2023/05/07 22:39:11;;;;;;;6.60;6.03;;;;;;;18.23;63.77;100530.19;10169242;28;20047;-75
2023/05/07 22:44:12;;;;;;;6.97;6.28;;;;;;;18.17;64.08;100525.47;10163846;28;20051;-73
2023/05/07 22:49:14;;;;;;;6.13;5.53;;;;;;;18.17;64.09;100525.47;10172083;28;20047;-74
2023/05/07 22:54:15;;;;;;;6.47;5.97;;;;;;;18.10;64.57;100524.44;10168258;28;20398;-76
2023/05/07 22:59:16;;;;;;;6.32;5.70;;;;;;;18.07;64.13;100522.91;10163569;29;20074;-74
2023/05/07 23:04:18;;;;;;;6.50;6.00;;;;;;;18.04;64.26;100525.13;10162120;29;20109;-73
2023/05/07 23:09:19;;;;;;;5.95;5.25;;;;;;;17.98;64.19;100516.66;10169358;28;20147;-73
2023/05/07 23:14:20;;;;;;;5.93;5.32;;;;;;;17.89;64.00;100512.28;10169138;29;20052;-74